sensor_id;sensor_type;location;lat;lon;timestamp;P1;durP1;ratioP1;P2;durP2;ratioP2
22780;SDS011;11557;50.884;4.322;2023-08-12T00:01:49;2.30;;;0.82;;
22780;SDS011;11557;50.884;4.322;2023-08-12T00:04:15;1.02;;;0.73;;
22780;SDS011;11557;50.884;4.322;2023-08-12T00:06:41;2.47;;;1.00;;
22780;SDS011;11557;50.884;4.322;2023-08-12T00:09:08;2.72;;;1.40;;
22780;SDS011;11557;50.884;4.322;2023-08-12T00:11:35;1.23;;;0.85;;
22780;SDS011;11557;50.884;4.322;2023-08-12T00:14:01;4.20;;;1.17;;
22780;SDS011;11557;50.884;4.322;2023-08-12T00:16:26;1.38;;;0.95;;
22780;SDS011;11557;50.884;4.322;2023-08-12T00:18:52;3.15;;;0.93;;
22780;SDS011;11557;50.884;4.322;2023-08-12T00:21:18;2.00;;;1.30;;
22780;SDS011;11557;50.884;4.322;2023-08-12T00:23:43;1.52;;;1.05;;
22780;SDS011;11557;50.884;4.322;2023-08-12T00:26:09;3.40;;;1.63;;
22780;SDS011;11557;50.884;4.322;2023-08-12T00:28:36;1.27;;;1.05;;
22780;SDS011;11557;50.884;4.322;2023-08-12T00:31:02;0.90;;;0.70;;
22780;SDS011;11557;50.884;4.322;2023-08-12T00:33:28;1.75;;;1.23;;
22780;SDS011;11557;50.884;4.322;2023-08-12T00:35:54;1.40;;;1.10;;
22780;SDS011;11557;50.884;4.322;2023-08-12T00:38:20;1.30;;;0.90;;
22780;SDS011;11557;50.884;4.322;2023-08-12T00:40:46;2.17;;;1.50;;
22780;SDS011;11557;50.884;4.322;2023-08-12T00:43:12;2.13;;;1.35;;
22780;SDS011;11557;50.884;4.322;2023-08-12T00:45:37;2.35;;;1.35;;
22780;SDS011;11557;50.884;4.322;2023-08-12T00:48:03;4.65;;;1.23;;
22780;SDS011;11557;50.884;4.322;2023-08-12T00:50:30;2.25;;;0.63;;
22780;SDS011;11557;50.884;4.322;2023-08-12T00:52:56;2.42;;;0.95;;
22780;SDS011;11557;50.884;4.322;2023-08-12T00:55:23;1.58;;;1.48;;
22780;SDS011;11557;50.884;4.322;2023-08-12T00:57:49;4.22;;;2.13;;
22780;SDS011;11557;50.884;4.322;2023-08-12T01:00:15;3.72;;;1.48;;
22780;SDS011;11557;50.884;4.322;2023-08-12T01:02:44;1.88;;;1.40;;
22780;SDS011;11557;50.884;4.322;2023-08-12T01:05:13;3.75;;;1.23;;
22780;SDS011;11557;50.884;4.322;2023-08-12T01:07:40;1.48;;;1.23;;
22780;SDS011;11557;50.884;4.322;2023-08-12T01:10:07;8.50;;;2.28;;
22780;SDS011;11557;50.884;4.322;2023-08-12T01:12:37;3.85;;;1.42;;
22780;SDS011;11557;50.884;4.322;2023-08-12T01:15:17;1.25;;;1.13;;
22780;SDS011;11557;50.884;4.322;2023-08-12T01:17:49;3.03;;;1.38;;
22780;SDS011;11557;50.884;4.322;2023-08-12T01:20:17;4.20;;;1.38;;
22780;SDS011;11557;50.884;4.322;2023-08-12T01:22:58;3.35;;;1.20;;
22780;SDS011;11557;50.884;4.322;2023-08-12T01:25:39;3.25;;;1.75;;
22780;SDS011;11557;50.884;4.322;2023-08-12T01:28:08;2.60;;;1.77;;
22780;SDS011;11557;50.884;4.322;2023-08-12T01:30:39;2.17;;;1.15;;
22780;SDS011;11557;50.884;4.322;2023-08-12T01:33:34;1.67;;;0.98;;
22780;SDS011;11557;50.884;4.322;2023-08-12T01:36:18;1.38;;;1.05;;
22780;SDS011;11557;50.884;4.322;2023-08-12T01:38:45;9.60;;;1.58;;
22780;SDS011;11557;50.884;4.322;2023-08-12T01:41:12;4.28;;;1.27;;
22780;SDS011;11557;50.884;4.322;2023-08-12T01:43:40;2.42;;;1.48;;
22780;SDS011;11557;50.884;4.322;2023-08-12T01:46:07;1.80;;;1.08;;
22780;SDS011;11557;50.884;4.322;2023-08-12T01:48:32;1.90;;;1.33;;
22780;SDS011;11557;50.884;4.322;2023-08-12T01:50:59;2.58;;;1.35;;
22780;SDS011;11557;50.884;4.322;2023-08-12T01:53:25;2.05;;;1.40;;
22780;SDS011;11557;50.884;4.322;2023-08-12T01:55:51;3.83;;;1.80;;
22780;SDS011;11557;50.884;4.322;2023-08-12T01:58:17;3.13;;;0.90;;
22780;SDS011;11557;50.884;4.322;2023-08-12T02:00:43;4.43;;;1.65;;
22780;SDS011;11557;50.884;4.322;2023-08-12T02:03:09;4.05;;;1.30;;
22780;SDS011;11557;50.884;4.322;2023-08-12T02:05:34;2.25;;;0.88;;
22780;SDS011;11557;50.884;4.322;2023-08-12T02:08:02;1.33;;;0.93;;
22780;SDS011;11557;50.884;4.322;2023-08-12T02:10:31;2.55;;;1.13;;
22780;SDS011;11557;50.884;4.322;2023-08-12T02:12:56;1.70;;;1.02;;
22780;SDS011;11557;50.884;4.322;2023-08-12T02:15:22;1.48;;;1.25;;
22780;SDS011;11557;50.884;4.322;2023-08-12T02:17:48;1.63;;;0.75;;
22780;SDS011;11557;50.884;4.322;2023-08-12T02:20:14;1.60;;;1.45;;
22780;SDS011;11557;50.884;4.322;2023-08-12T02:22:39;2.67;;;1.13;;
22780;SDS011;11557;50.884;4.322;2023-08-12T02:25:05;3.80;;;1.50;;
22780;SDS011;11557;50.884;4.322;2023-08-12T02:27:31;2.92;;;1.20;;
22780;SDS011;11557;50.884;4.322;2023-08-12T02:29:56;4.53;;;1.65;;
22780;SDS011;11557;50.884;4.322;2023-08-12T02:32:22;1.55;;;0.98;;
22780;SDS011;11557;50.884;4.322;2023-08-12T02:34:48;2.70;;;1.67;;
22780;SDS011;11557;50.884;4.322;2023-08-12T02:37:14;2.38;;;1.50;;
22780;SDS011;11557;50.884;4.322;2023-08-12T02:39:39;3.92;;;1.38;;
22780;SDS011;11557;50.884;4.322;2023-08-12T02:42:05;2.22;;;1.10;;
22780;SDS011;11557;50.884;4.322;2023-08-12T02:44:31;1.73;;;1.30;;
22780;SDS011;11557;50.884;4.322;2023-08-12T02:46:56;2.42;;;1.58;;
22780;SDS011;11557;50.884;4.322;2023-08-12T02:49:22;3.22;;;1.23;;
22780;SDS011;11557;50.884;4.322;2023-08-12T02:51:48;4.32;;;1.92;;
22780;SDS011;11557;50.884;4.322;2023-08-12T02:54:13;1.52;;;1.10;;
22780;SDS011;11557;50.884;4.322;2023-08-12T02:56:39;4.15;;;1.23;;
22780;SDS011;11557;50.884;4.322;2023-08-12T02:59:05;3.95;;;1.70;;
22780;SDS011;11557;50.884;4.322;2023-08-12T03:01:31;4.88;;;2.03;;
22780;SDS011;11557;50.884;4.322;2023-08-12T03:03:56;3.53;;;1.75;;
22780;SDS011;11557;50.884;4.322;2023-08-12T03:06:22;1.63;;;1.10;;
22780;SDS011;11557;50.884;4.322;2023-08-12T03:08:47;1.60;;;1.15;;
22780;SDS011;11557;50.884;4.322;2023-08-12T03:11:13;16.27;;;2.03;;
22780;SDS011;11557;50.884;4.322;2023-08-12T03:13:39;2.55;;;1.83;;
22780;SDS011;11557;50.884;4.322;2023-08-12T03:16:04;5.35;;;1.70;;
22780;SDS011;11557;50.884;4.322;2023-08-12T03:18:35;2.90;;;2.13;;
22780;SDS011;11557;50.884;4.322;2023-08-12T03:21:04;1.20;;;1.10;;
22780;SDS011;11557;50.884;4.322;2023-08-12T03:23:31;3.50;;;1.60;;
22780;SDS011;11557;50.884;4.322;2023-08-12T03:25:57;3.83;;;1.80;;
22780;SDS011;11557;50.884;4.322;2023-08-12T03:28:22;3.03;;;1.25;;
22780;SDS011;11557;50.884;4.322;2023-08-12T03:30:51;6.53;;;2.42;;
22780;SDS011;11557;50.884;4.322;2023-08-12T03:33:17;3.55;;;2.28;;
22780;SDS011;11557;50.884;4.322;2023-08-12T03:35:46;1.50;;;1.15;;
22780;SDS011;11557;50.884;4.322;2023-08-12T03:38:13;2.88;;;1.63;;
22780;SDS011;11557;50.884;4.322;2023-08-12T03:40:39;2.10;;;1.60;;
22780;SDS011;11557;50.884;4.322;2023-08-12T03:43:05;1.80;;;1.52;;
22780;SDS011;11557;50.884;4.322;2023-08-12T03:45:31;3.30;;;1.95;;
22780;SDS011;11557;50.884;4.322;2023-08-12T03:47:57;2.17;;;1.63;;
22780;SDS011;11557;50.884;4.322;2023-08-12T03:50:22;2.30;;;1.38;;
22780;SDS011;11557;50.884;4.322;2023-08-12T03:52:48;0.90;;;0.90;;
22780;SDS011;11557;50.884;4.322;2023-08-12T03:55:13;2.63;;;1.23;;
22780;SDS011;11557;50.884;4.322;2023-08-12T03:57:40;1.23;;;0.63;;
22780;SDS011;11557;50.884;4.322;2023-08-12T04:00:06;1.60;;;1.02;;
22780;SDS011;11557;50.884;4.322;2023-08-12T04:02:33;1.45;;;1.35;;
22780;SDS011;11557;50.884;4.322;2023-08-12T04:04:59;1.05;;;0.73;;
22780;SDS011;11557;50.884;4.322;2023-08-12T04:07:25;2.53;;;1.05;;
22780;SDS011;11557;50.884;4.322;2023-08-12T04:09:52;0.77;;;0.60;;
22780;SDS011;11557;50.884;4.322;2023-08-12T04:12:18;2.75;;;1.30;;
22780;SDS011;11557;50.884;4.322;2023-08-12T04:14:43;3.17;;;0.65;;
22780;SDS011;11557;50.884;4.322;2023-08-12T04:17:09;1.75;;;1.17;;
22780;SDS011;11557;50.884;4.322;2023-08-12T04:19:35;0.73;;;0.50;;
22780;SDS011;11557;50.884;4.322;2023-08-12T04:22:00;2.15;;;1.02;;
22780;SDS011;11557;50.884;4.322;2023-08-12T04:24:26;1.48;;;0.70;;
22780;SDS011;11557;50.884;4.322;2023-08-12T04:26:52;0.98;;;0.47;;
22780;SDS011;11557;50.884;4.322;2023-08-12T04:29:17;1.35;;;1.25;;
22780;SDS011;11557;50.884;4.322;2023-08-12T04:31:43;0.88;;;0.63;;
22780;SDS011;11557;50.884;4.322;2023-08-12T04:34:08;0.65;;;0.57;;
22780;SDS011;11557;50.884;4.322;2023-08-12T04:36:34;1.48;;;1.02;;
22780;SDS011;11557;50.884;4.322;2023-08-12T04:39:00;1.70;;;0.80;;
22780;SDS011;11557;50.884;4.322;2023-08-12T04:41:26;1.25;;;0.70;;
22780;SDS011;11557;50.884;4.322;2023-08-12T04:43:51;0.80;;;0.70;;
22780;SDS011;11557;50.884;4.322;2023-08-12T04:46:17;0.60;;;0.60;;
22780;SDS011;11557;50.884;4.322;2023-08-12T04:48:43;1.17;;;1.05;;
22780;SDS011;11557;50.884;4.322;2023-08-12T04:51:08;1.08;;;0.82;;
22780;SDS011;11557;50.884;4.322;2023-08-12T04:53:35;0.88;;;0.88;;
22780;SDS011;11557;50.884;4.322;2023-08-12T04:56:00;1.25;;;0.80;;
22780;SDS011;11557;50.884;4.322;2023-08-12T04:58:27;1.20;;;0.82;;
22780;SDS011;11557;50.884;4.322;2023-08-12T05:00:52;0.60;;;0.60;;
22780;SDS011;11557;50.884;4.322;2023-08-12T05:03:18;2.75;;;1.13;;
22780;SDS011;11557;50.884;4.322;2023-08-12T05:05:43;1.45;;;0.90;;
22780;SDS011;11557;50.884;4.322;2023-08-12T05:08:17;5.68;;;1.00;;
22780;SDS011;11557;50.884;4.322;2023-08-12T05:10:43;2.53;;;1.23;;
22780;SDS011;11557;50.884;4.322;2023-08-12T05:13:09;1.30;;;0.88;;
22780;SDS011;11557;50.884;4.322;2023-08-12T05:15:34;1.83;;;0.95;;
22780;SDS011;11557;50.884;4.322;2023-08-12T05:18:02;1.48;;;0.80;;
22780;SDS011;11557;50.884;4.322;2023-08-12T05:20:28;2.63;;;1.33;;
22780;SDS011;11557;50.884;4.322;2023-08-12T05:22:54;3.45;;;1.05;;
22780;SDS011;11557;50.884;4.322;2023-08-12T05:25:19;1.10;;;0.82;;
22780;SDS011;11557;50.884;4.322;2023-08-12T05:27:45;15.85;;;1.85;;
22780;SDS011;11557;50.884;4.322;2023-08-12T05:30:11;4.22;;;1.88;;
22780;SDS011;11557;50.884;4.322;2023-08-12T05:32:37;1.35;;;0.80;;
22780;SDS011;11557;50.884;4.322;2023-08-12T05:35:03;1.30;;;0.85;;
22780;SDS011;11557;50.884;4.322;2023-08-12T05:37:29;1.90;;;1.02;;
22780;SDS011;11557;50.884;4.322;2023-08-12T05:39:54;2.13;;;1.63;;
22780;SDS011;11557;50.884;4.322;2023-08-12T05:42:20;0.93;;;0.90;;
22780;SDS011;11557;50.884;4.322;2023-08-12T05:44:46;2.47;;;1.05;;
22780;SDS011;11557;50.884;4.322;2023-08-12T05:47:11;1.15;;;1.05;;
22780;SDS011;11557;50.884;4.322;2023-08-12T05:49:37;1.27;;;1.20;;
22780;SDS011;11557;50.884;4.322;2023-08-12T05:52:03;2.60;;;1.10;;
22780;SDS011;11557;50.884;4.322;2023-08-12T05:54:29;0.77;;;0.77;;
22780;SDS011;11557;50.884;4.322;2023-08-12T05:56:54;1.38;;;0.98;;
22780;SDS011;11557;50.884;4.322;2023-08-12T05:59:20;1.02;;;0.65;;
22780;SDS011;11557;50.884;4.322;2023-08-12T06:01:46;1.77;;;1.38;;
22780;SDS011;11557;50.884;4.322;2023-08-12T06:04:11;1.13;;;0.82;;
22780;SDS011;11557;50.884;4.322;2023-08-12T06:06:37;0.90;;;0.82;;
22780;SDS011;11557;50.884;4.322;2023-08-12T06:09:03;4.45;;;0.90;;
22780;SDS011;11557;50.884;4.322;2023-08-12T06:11:28;1.52;;;0.70;;
22780;SDS011;11557;50.884;4.322;2023-08-12T06:13:54;2.28;;;1.23;;
22780;SDS011;11557;50.884;4.322;2023-08-12T06:16:20;2.03;;;1.23;;
22780;SDS011;11557;50.884;4.322;2023-08-12T06:18:45;1.60;;;0.55;;
22780;SDS011;11557;50.884;4.322;2023-08-12T06:21:11;1.80;;;0.50;;
22780;SDS011;11557;50.884;4.322;2023-08-12T06:23:37;1.33;;;0.82;;
22780;SDS011;11557;50.884;4.322;2023-08-12T06:26:02;0.63;;;0.60;;
22780;SDS011;11557;50.884;4.322;2023-08-12T06:28:28;0.60;;;0.60;;
22780;SDS011;11557;50.884;4.322;2023-08-12T06:30:54;0.43;;;0.43;;
22780;SDS011;11557;50.884;4.322;2023-08-12T06:33:19;0.38;;;0.38;;
22780;SDS011;11557;50.884;4.322;2023-08-12T06:35:45;0.60;;;0.43;;
22780;SDS011;11557;50.884;4.322;2023-08-12T06:38:11;0.68;;;0.65;;
22780;SDS011;11557;50.884;4.322;2023-08-12T06:40:37;1.23;;;0.68;;
22780;SDS011;11557;50.884;4.322;2023-08-12T06:43:03;0.25;;;0.20;;
22780;SDS011;11557;50.884;4.322;2023-08-12T06:45:29;0.20;;;0.20;;
22780;SDS011;11557;50.884;4.322;2023-08-12T06:47:55;0.55;;;0.55;;
22780;SDS011;11557;50.884;4.322;2023-08-12T06:50:20;1.33;;;0.73;;
22780;SDS011;11557;50.884;4.322;2023-08-12T06:52:46;1.45;;;0.70;;
22780;SDS011;11557;50.884;4.322;2023-08-12T06:55:11;0.43;;;0.30;;
22780;SDS011;11557;50.884;4.322;2023-08-12T06:57:37;0.40;;;0.40;;
22780;SDS011;11557;50.884;4.322;2023-08-12T07:00:03;1.55;;;0.55;;
22780;SDS011;11557;50.884;4.322;2023-08-12T07:02:30;0.82;;;0.57;;
22780;SDS011;11557;50.884;4.322;2023-08-12T07:04:56;1.00;;;0.57;;
22780;SDS011;11557;50.884;4.322;2023-08-12T07:07:22;0.70;;;0.70;;
22780;SDS011;11557;50.884;4.322;2023-08-12T07:09:47;1.58;;;1.20;;
22780;SDS011;11557;50.884;4.322;2023-08-12T07:12:13;1.90;;;1.23;;
22780;SDS011;11557;50.884;4.322;2023-08-12T07:14:39;1.88;;;1.10;;
22780;SDS011;11557;50.884;4.322;2023-08-12T07:17:04;2.78;;;1.35;;
22780;SDS011;11557;50.884;4.322;2023-08-12T07:19:30;1.23;;;1.08;;
22780;SDS011;11557;50.884;4.322;2023-08-12T07:21:55;2.40;;;0.90;;
22780;SDS011;11557;50.884;4.322;2023-08-12T07:24:21;2.05;;;1.23;;
22780;SDS011;11557;50.884;4.322;2023-08-12T07:26:47;2.20;;;1.13;;
22780;SDS011;11557;50.884;4.322;2023-08-12T07:29:13;1.83;;;1.33;;
22780;SDS011;11557;50.884;4.322;2023-08-12T07:31:39;3.50;;;2.03;;
22780;SDS011;11557;50.884;4.322;2023-08-12T07:34:04;1.60;;;1.13;;
22780;SDS011;11557;50.884;4.322;2023-08-12T07:36:31;4.25;;;1.17;;
22780;SDS011;11557;50.884;4.322;2023-08-12T07:38:58;1.90;;;1.70;;
22780;SDS011;11557;50.884;4.322;2023-08-12T07:41:23;2.38;;;1.45;;
22780;SDS011;11557;50.884;4.322;2023-08-12T07:43:52;2.58;;;1.67;;
22780;SDS011;11557;50.884;4.322;2023-08-12T07:46:18;1.90;;;1.23;;
22780;SDS011;11557;50.884;4.322;2023-08-12T07:48:43;1.95;;;1.55;;
22780;SDS011;11557;50.884;4.322;2023-08-12T07:51:09;3.22;;;1.88;;
22780;SDS011;11557;50.884;4.322;2023-08-12T07:53:35;4.85;;;2.00;;
22780;SDS011;11557;50.884;4.322;2023-08-12T07:56:00;2.17;;;1.35;;
22780;SDS011;11557;50.884;4.322;2023-08-12T07:58:26;2.30;;;1.45;;
22780;SDS011;11557;50.884;4.322;2023-08-12T08:00:52;2.08;;;1.80;;
22780;SDS011;11557;50.884;4.322;2023-08-12T08:03:19;3.17;;;2.42;;
22780;SDS011;11557;50.884;4.322;2023-08-12T08:05:44;1.70;;;1.60;;
22780;SDS011;11557;50.884;4.322;2023-08-12T08:08:12;2.03;;;1.55;;
22780;SDS011;11557;50.884;4.322;2023-08-12T08:10:38;1.58;;;1.25;;
22780;SDS011;11557;50.884;4.322;2023-08-12T08:13:03;2.72;;;1.73;;
22780;SDS011;11557;50.884;4.322;2023-08-12T08:15:29;3.35;;;0.77;;
22780;SDS011;11557;50.884;4.322;2023-08-12T08:17:55;1.63;;;0.98;;
22780;SDS011;11557;50.884;4.322;2023-08-12T08:20:21;4.03;;;0.90;;
22780;SDS011;11557;50.884;4.322;2023-08-12T08:22:46;1.92;;;1.20;;
22780;SDS011;11557;50.884;4.322;2023-08-12T08:25:12;1.65;;;1.02;;
22780;SDS011;11557;50.884;4.322;2023-08-12T08:27:38;0.80;;;0.70;;
22780;SDS011;11557;50.884;4.322;2023-08-12T08:30:04;1.92;;;1.40;;
22780;SDS011;11557;50.884;4.322;2023-08-12T08:32:36;1.58;;;1.05;;
22780;SDS011;11557;50.884;4.322;2023-08-12T08:35:01;3.22;;;1.48;;
22780;SDS011;11557;50.884;4.322;2023-08-12T08:37:27;1.38;;;1.17;;
22780;SDS011;11557;50.884;4.322;2023-08-12T08:39:53;1.75;;;1.35;;
22780;SDS011;11557;50.884;4.322;2023-08-12T08:42:19;3.28;;;1.38;;
22780;SDS011;11557;50.884;4.322;2023-08-12T08:44:45;2.88;;;0.82;;
22780;SDS011;11557;50.884;4.322;2023-08-12T08:47:16;0.90;;;0.90;;
22780;SDS011;11557;50.884;4.322;2023-08-12T08:49:51;0.85;;;0.73;;
22780;SDS011;11557;50.884;4.322;2023-08-12T08:52:19;1.77;;;1.27;;
22780;SDS011;11557;50.884;4.322;2023-08-12T08:54:45;1.27;;;1.15;;
22780;SDS011;11557;50.884;4.322;2023-08-12T08:57:10;1.45;;;1.20;;
22780;SDS011;11557;50.884;4.322;2023-08-12T08:59:37;0.93;;;0.82;;
22780;SDS011;11557;50.884;4.322;2023-08-12T09:02:03;1.90;;;0.80;;
22780;SDS011;11557;50.884;4.322;2023-08-12T09:04:32;0.80;;;0.63;;
22780;SDS011;11557;50.884;4.322;2023-08-12T09:06:58;1.38;;;0.63;;
22780;SDS011;11557;50.884;4.322;2023-08-12T09:09:25;1.00;;;0.70;;
22780;SDS011;11557;50.884;4.322;2023-08-12T09:11:52;0.70;;;0.65;;
22780;SDS011;11557;50.884;4.322;2023-08-12T09:14:20;7.97;;;1.88;;
22780;SDS011;11557;50.884;4.322;2023-08-12T09:16:46;2.55;;;0.85;;
22780;SDS011;11557;50.884;4.322;2023-08-12T09:19:12;0.95;;;0.65;;
22780;SDS011;11557;50.884;4.322;2023-08-12T09:21:38;1.08;;;0.75;;
22780;SDS011;11557;50.884;4.322;2023-08-12T09:24:04;2.40;;;0.95;;
22780;SDS011;11557;50.884;4.322;2023-08-12T09:26:33;2.95;;;1.20;;
22780;SDS011;11557;50.884;4.322;2023-08-12T09:28:59;2.42;;;0.88;;
22780;SDS011;11557;50.884;4.322;2023-08-12T09:31:40;1.83;;;0.98;;
22780;SDS011;11557;50.884;4.322;2023-08-12T09:34:06;0.68;;;0.63;;
22780;SDS011;11557;50.884;4.322;2023-08-12T09:36:32;1.35;;;0.70;;
22780;SDS011;11557;50.884;4.322;2023-08-12T09:38:58;0.85;;;0.80;;
22780;SDS011;11557;50.884;4.322;2023-08-12T09:41:25;1.15;;;0.88;;
22780;SDS011;11557;50.884;4.322;2023-08-12T09:43:53;0.63;;;0.40;;
22780;SDS011;11557;50.884;4.322;2023-08-12T09:46:20;2.28;;;1.08;;
22780;SDS011;11557;50.884;4.322;2023-08-12T09:48:49;0.43;;;0.40;;
22780;SDS011;11557;50.884;4.322;2023-08-12T09:51:15;0.57;;;0.43;;
22780;SDS011;11557;50.884;4.322;2023-08-12T09:53:41;1.15;;;0.43;;
22780;SDS011;11557;50.884;4.322;2023-08-12T09:56:07;0.55;;;0.35;;
22780;SDS011;11557;50.884;4.322;2023-08-12T09:58:36;7.15;;;0.93;;
22780;SDS011;11557;50.884;4.322;2023-08-12T10:01:03;1.05;;;0.22;;
22780;SDS011;11557;50.884;4.322;2023-08-12T10:03:33;1.25;;;0.20;;
22780;SDS011;11557;50.884;4.322;2023-08-12T10:06:00;2.00;;;0.77;;
22780;SDS011;11557;50.884;4.322;2023-08-12T10:08:29;0.43;;;0.30;;
22780;SDS011;11557;50.884;4.322;2023-08-12T10:10:59;1.58;;;0.47;;
22780;SDS011;11557;50.884;4.322;2023-08-12T10:13:25;0.82;;;0.75;;
22780;SDS011;11557;50.884;4.322;2023-08-12T10:15:50;2.55;;;0.65;;
22780;SDS011;11557;50.884;4.322;2023-08-12T10:18:17;1.02;;;0.38;;
22780;SDS011;11557;50.884;4.322;2023-08-12T10:20:44;1.80;;;0.95;;
22780;SDS011;11557;50.884;4.322;2023-08-12T10:23:15;0.70;;;0.63;;
22780;SDS011;11557;50.884;4.322;2023-08-12T10:25:41;1.92;;;0.90;;
22780;SDS011;11557;50.884;4.322;2023-08-12T10:28:09;2.10;;;0.40;;
22780;SDS011;11557;50.884;4.322;2023-08-12T10:30:39;0.32;;;0.32;;
22780;SDS011;11557;50.884;4.322;2023-08-12T10:33:06;1.52;;;0.30;;
22780;SDS011;11557;50.884;4.322;2023-08-12T10:38:10;1.15;;;0.85;;
22780;SDS011;11557;50.884;4.322;2023-08-12T10:40:38;1.85;;;0.50;;
22780;SDS011;11557;50.884;4.322;2023-08-12T10:43:04;0.38;;;0.32;;
22780;SDS011;11557;50.884;4.322;2023-08-12T10:45:46;0.82;;;0.63;;
22780;SDS011;11557;50.884;4.322;2023-08-12T10:48:17;1.17;;;0.88;;
22780;SDS011;11557;50.884;4.322;2023-08-12T10:50:53;0.47;;;0.45;;
22780;SDS011;11557;50.884;4.322;2023-08-12T10:53:24;0.20;;;0.20;;
22780;SDS011;11557;50.884;4.322;2023-08-12T10:55:54;0.68;;;0.40;;
22780;SDS011;11557;50.884;4.322;2023-08-12T10:58:26;2.28;;;0.65;;
22780;SDS011;11557;50.884;4.322;2023-08-12T11:00:54;2.58;;;0.52;;
22780;SDS011;11557;50.884;4.322;2023-08-12T11:03:20;0.93;;;0.43;;
22780;SDS011;11557;50.884;4.322;2023-08-12T11:05:46;1.00;;;0.60;;
22780;SDS011;11557;50.884;4.322;2023-08-12T11:08:12;1.00;;;0.57;;
22780;SDS011;11557;50.884;4.322;2023-08-12T11:10:39;0.30;;;0.20;;
22780;SDS011;11557;50.884;4.322;2023-08-12T11:13:05;3.05;;;0.80;;
22780;SDS011;11557;50.884;4.322;2023-08-12T11:18:16;0.45;;;0.30;;
22780;SDS011;11557;50.884;4.322;2023-08-12T11:20:44;1.30;;;0.57;;
22780;SDS011;11557;50.884;4.322;2023-08-12T11:23:10;0.30;;;0.30;;
22780;SDS011;11557;50.884;4.322;2023-08-12T11:25:37;8.77;;;1.10;;
22780;SDS011;11557;50.884;4.322;2023-08-12T11:28:04;0.65;;;0.50;;
22780;SDS011;11557;50.884;4.322;2023-08-12T11:30:30;5.38;;;1.02;;
22780;SDS011;11557;50.884;4.322;2023-08-12T11:32:56;3.55;;;0.70;;
22780;SDS011;11557;50.884;4.322;2023-08-12T11:35:24;3.05;;;0.47;;
22780;SDS011;11557;50.884;4.322;2023-08-12T11:37:51;0.77;;;0.50;;
22780;SDS011;11557;50.884;4.322;2023-08-12T11:40:24;0.60;;;0.60;;
22780;SDS011;11557;50.884;4.322;2023-08-12T11:42:54;2.92;;;0.20;;
22780;SDS011;11557;50.884;4.322;2023-08-12T11:45:20;5.03;;;0.55;;
22780;SDS011;11557;50.884;4.322;2023-08-12T11:47:49;5.93;;;0.20;;
22780;SDS011;11557;50.884;4.322;2023-08-12T11:50:24;0.73;;;0.32;;
22780;SDS011;11557;50.884;4.322;2023-08-12T11:52:53;2.08;;;0.52;;
22780;SDS011;11557;50.884;4.322;2023-08-12T11:55:29;0.63;;;0.30;;
22780;SDS011;11557;50.884;4.322;2023-08-12T11:57:54;1.35;;;0.45;;
22780;SDS011;11557;50.884;4.322;2023-08-12T12:00:21;0.55;;;0.32;;
22780;SDS011;11557;50.884;4.322;2023-08-12T12:02:53;0.60;;;0.35;;
22780;SDS011;11557;50.884;4.322;2023-08-12T12:05:25;1.17;;;0.45;;
22780;SDS011;11557;50.884;4.322;2023-08-12T12:07:53;1.33;;;0.20;;
22780;SDS011;11557;50.884;4.322;2023-08-12T12:10:26;1.20;;;0.40;;
22780;SDS011;11557;50.884;4.322;2023-08-12T12:12:56;0.65;;;0.60;;
22780;SDS011;11557;50.884;4.322;2023-08-12T12:15:22;0.80;;;0.30;;
22780;SDS011;11557;50.884;4.322;2023-08-12T12:17:49;0.57;;;0.43;;
22780;SDS011;11557;50.884;4.322;2023-08-12T12:20:15;0.82;;;0.30;;
22780;SDS011;11557;50.884;4.322;2023-08-12T12:22:42;0.08;;;0.08;;
22780;SDS011;11557;50.884;4.322;2023-08-12T12:25:11;1.65;;;0.30;;
22780;SDS011;11557;50.884;4.322;2023-08-12T12:27:38;0.70;;;0.60;;
22780;SDS011;11557;50.884;4.322;2023-08-12T12:30:08;0.50;;;0.17;;
22780;SDS011;11557;50.884;4.322;2023-08-12T12:32:37;1.00;;;0.50;;
22780;SDS011;11557;50.884;4.322;2023-08-12T12:35:03;0.75;;;0.35;;
22780;SDS011;11557;50.884;4.322;2023-08-12T12:37:32;3.50;;;0.75;;
22780;SDS011;11557;50.884;4.322;2023-08-12T12:39:58;0.60;;;0.20;;
22780;SDS011;11557;50.884;4.322;2023-08-12T12:42:23;2.60;;;0.57;;
22780;SDS011;11557;50.884;4.322;2023-08-12T12:44:49;0.30;;;0.20;;
22780;SDS011;11557;50.884;4.322;2023-08-12T12:47:15;2.83;;;0.55;;
22780;SDS011;11557;50.884;4.322;2023-08-12T12:49:41;2.83;;;0.50;;
22780;SDS011;11557;50.884;4.322;2023-08-12T12:52:08;0.82;;;0.30;;
22780;SDS011;11557;50.884;4.322;2023-08-12T12:54:33;0.15;;;0.10;;
22780;SDS011;11557;50.884;4.322;2023-08-12T12:56:59;0.30;;;0.17;;
22780;SDS011;11557;50.884;4.322;2023-08-12T12:59:26;0.20;;;0.10;;
22780;SDS011;11557;50.884;4.322;2023-08-12T13:01:52;1.55;;;0.13;;
22780;SDS011;11557;50.884;4.322;2023-08-12T13:04:17;0.80;;;0.50;;
22780;SDS011;11557;50.884;4.322;2023-08-12T13:06:43;0.20;;;0.15;;
22780;SDS011;11557;50.884;4.322;2023-08-12T13:09:09;0.10;;;0.10;;
22780;SDS011;11557;50.884;4.322;2023-08-12T13:11:37;1.05;;;0.45;;
22780;SDS011;11557;50.884;4.322;2023-08-12T13:14:10;1.20;;;0.65;;
22780;SDS011;11557;50.884;4.322;2023-08-12T13:16:44;1.13;;;0.63;;
22780;SDS011;11557;50.884;4.322;2023-08-12T13:19:10;3.08;;;1.33;;
22780;SDS011;11557;50.884;4.322;2023-08-12T13:21:36;0.40;;;0.38;;
22780;SDS011;11557;50.884;4.322;2023-08-12T13:24:01;1.67;;;1.05;;
22780;SDS011;11557;50.884;4.322;2023-08-12T13:26:28;0.88;;;0.60;;
22780;SDS011;11557;50.884;4.322;2023-08-12T13:28:54;2.72;;;1.05;;
22780;SDS011;11557;50.884;4.322;2023-08-12T13:31:20;0.80;;;0.75;;
22780;SDS011;11557;50.884;4.322;2023-08-12T13:33:57;2.83;;;0.90;;
22780;SDS011;11557;50.884;4.322;2023-08-12T13:36:28;1.25;;;0.40;;
22780;SDS011;11557;50.884;4.322;2023-08-12T13:38:55;13.30;;;1.02;;
22780;SDS011;11557;50.884;4.322;2023-08-12T13:41:21;0.57;;;0.50;;
22780;SDS011;11557;50.884;4.322;2023-08-12T13:43:47;2.17;;;0.80;;
22780;SDS011;11557;50.884;4.322;2023-08-12T13:46:12;0.85;;;0.50;;
22780;SDS011;11557;50.884;4.322;2023-08-12T13:48:38;0.55;;;0.50;;
22780;SDS011;11557;50.884;4.322;2023-08-12T13:51:04;0.65;;;0.65;;
22780;SDS011;11557;50.884;4.322;2023-08-12T13:53:29;3.55;;;0.30;;
22780;SDS011;11557;50.884;4.322;2023-08-12T13:55:55;5.30;;;1.05;;
22780;SDS011;11557;50.884;4.322;2023-08-12T13:58:21;0.75;;;0.30;;
22780;SDS011;11557;50.884;4.322;2023-08-12T14:00:46;0.38;;;0.20;;
22780;SDS011;11557;50.884;4.322;2023-08-12T14:03:12;1.20;;;0.35;;
22780;SDS011;11557;50.884;4.322;2023-08-12T14:05:38;2.15;;;0.82;;
22780;SDS011;11557;50.884;4.322;2023-08-12T14:08:06;0.40;;;0.40;;
22780;SDS011;11557;50.884;4.322;2023-08-12T14:10:32;0.80;;;0.80;;
22780;SDS011;11557;50.884;4.322;2023-08-12T14:12:58;1.30;;;0.93;;
22780;SDS011;11557;50.884;4.322;2023-08-12T14:15:23;1.40;;;0.65;;
22780;SDS011;11557;50.884;4.322;2023-08-12T14:17:56;1.88;;;0.85;;
22780;SDS011;11557;50.884;4.322;2023-08-12T14:20:22;2.08;;;0.50;;
22780;SDS011;11557;50.884;4.322;2023-08-12T14:22:48;0.73;;;0.30;;
22780;SDS011;11557;50.884;4.322;2023-08-12T14:25:13;0.57;;;0.45;;
22780;SDS011;11557;50.884;4.322;2023-08-12T14:27:39;1.52;;;0.60;;
22780;SDS011;11557;50.884;4.322;2023-08-12T14:32:48;1.17;;;0.40;;
22780;SDS011;11557;50.884;4.322;2023-08-12T14:35:36;2.03;;;0.20;;
22780;SDS011;11557;50.884;4.322;2023-08-12T14:38:04;4.05;;;0.93;;
22780;SDS011;11557;50.884;4.322;2023-08-12T14:40:30;0.73;;;0.30;;
22780;SDS011;11557;50.884;4.322;2023-08-12T14:42:56;1.77;;;0.70;;
22780;SDS011;11557;50.884;4.322;2023-08-12T14:45:21;1.05;;;0.45;;
22780;SDS011;11557;50.884;4.322;2023-08-12T14:47:47;0.93;;;0.32;;
22780;SDS011;11557;50.884;4.322;2023-08-12T14:50:13;0.88;;;0.70;;
22780;SDS011;11557;50.884;4.322;2023-08-12T14:52:38;4.07;;;0.22;;
22780;SDS011;11557;50.884;4.322;2023-08-12T14:55:04;1.85;;;0.70;;